createdAt,value
2019-04-22T00:00:08.624Z,38.49
2019-04-22T00:00:49.379Z,38.54
2019-04-22T00:01:28.637Z,38.49
2019-04-22T00:02:05.985Z,38.62
2019-04-22T00:02:47.292Z,38.61
2019-04-22T00:03:20.510Z,38.71
2019-04-22T00:04:01.329Z,38.74
2019-04-22T00:04:49.895Z,38.71
2019-04-22T00:05:19.229Z,38.78
2019-04-22T00:06:12.962Z,38.68
2019-04-22T00:06:50.271Z,38.72
2019-04-22T00:07:28.919Z,38.83
2019-04-22T00:08:13.137Z,38.76
2019-04-22T00:08:46.391Z,38.84
2019-04-22T00:09:26.755Z,38.70
2019-04-22T00:10:09.651Z,38.68
2019-04-22T00:10:42.012Z,38.71
2019-04-22T00:11:19.601Z,38.68
2019-04-22T00:12:00.417Z,38.79
2019-04-22T00:12:37.479Z,38.76
2019-04-22T00:13:20.041Z,38.92
2019-04-22T00:14:01.277Z,38.92
2019-04-22T00:14:23.034Z,38.88
2019-04-22T00:15:02.247Z,38.90
2019-04-22T00:15:36.998Z,38.82
2019-04-22T00:16:26.442Z,38.92
2019-04-22T00:17:00.752Z,38.89
2019-04-22T00:18:22.296Z,38.90
2019-04-22T00:20:08.809Z,38.99
2019-04-22T00:20:43.925Z,39.05
2019-04-22T00:21:27.464Z,39.02
2019-04-22T00:22:03.352Z,39.03
2019-04-22T00:22:40.170Z,38.99
2019-04-22T00:23:13.248Z,39.12
2019-04-22T00:23:53.100Z,39.18
2019-04-22T00:24:33.380Z,39.13
2019-04-22T00:25:18.042Z,39.11
2019-04-22T00:25:56.104Z,39.09
2019-04-22T00:26:29.081Z,39.09
2019-04-22T00:27:05.199Z,39.30
2019-04-22T00:28:21.599Z,39.30
2019-04-22T00:28:58.211Z,39.30
2019-04-22T00:29:49.856Z,39.29
2019-04-22T00:30:19.360Z,39.24
2019-04-22T00:30:58.217Z,39.31
2019-04-22T00:31:42.410Z,39.45
2019-04-22T00:32:27.198Z,39.43
2019-04-22T00:33:21.692Z,39.58
2019-04-22T00:33:57.789Z,39.73
2019-04-22T00:34:51.308Z,39.67
2019-04-22T00:35:25.607Z,39.70
2019-04-22T00:36:01.124Z,39.77
2019-04-22T00:36:42.007Z,39.76
2019-04-22T00:37:25.241Z,39.69
2019-04-22T00:38:03.751Z,39.65
2019-04-22T00:38:38.794Z,39.60
2019-04-22T00:39:16.733Z,39.52
2019-04-22T00:39:51.834Z,39.59
2019-04-22T00:40:36.646Z,39.58
2019-04-22T00:41:17.120Z,39.49
2019-04-22T00:41:52.155Z,39.48
2019-04-22T00:42:29.457Z,39.47
2019-04-22T00:42:58.312Z,39.50
2019-04-22T00:43:39.297Z,39.54
2019-04-22T00:44:22.237Z,39.51
2019-04-22T00:45:00.471Z,39.48
2019-04-22T00:45:33.378Z,39.45
2019-04-22T00:46:10.948Z,39.56
2019-04-22T00:46:55.671Z,39.59
2019-04-22T00:47:27.955Z,39.60
2019-04-22T00:48:10.976Z,39.72
2019-04-22T00:48:43.018Z,39.76
2019-04-22T00:49:59.950Z,39.80
2019-04-22T00:50:44.327Z,39.66
2019-04-22T00:51:17.911Z,39.61
2019-04-22T00:52:28.514Z,39.69
2019-04-22T00:53:09.296Z,39.68
2019-04-22T00:53:41.588Z,39.70
2019-04-22T00:54:22.601Z,39.96
2019-04-22T00:55:06.099Z,40.00
2019-04-22T00:55:40.486Z,39.85
2019-04-22T00:56:52.829Z,39.83
2019-04-22T00:57:30.821Z,39.79
2019-04-22T00:58:10.823Z,39.76
2019-04-22T00:59:23.861Z,39.84
2019-04-22T01:00:01.474Z,39.80
2019-04-22T01:00:39.272Z,39.80
2019-04-22T01:01:57.544Z,39.77
2019-04-22T01:02:34.645Z,39.88
2019-04-22T01:03:13.401Z,39.77
2019-04-22T01:04:02.115Z,39.83
2019-04-22T01:05:09.804Z,39.80
2019-04-22T01:05:43.789Z,39.85
2019-04-22T01:06:20.504Z,39.98
2019-04-22T01:07:00.770Z,39.95
2019-04-22T01:07:30.745Z,39.95
2019-04-22T01:08:12.907Z,39.91
2019-04-22T01:09:33.006Z,39.86
2019-04-22T01:10:12.694Z,39.84
2019-04-22T01:10:49.395Z,39.91
2019-04-22T01:11:30.714Z,40.01
2019-04-22T01:12:01.455Z,39.96
2019-04-22T01:12:39.549Z,39.98
2019-04-22T01:13:21.365Z,40.11
2019-04-22T01:13:50.078Z,40.19
2019-04-22T01:14:28.046Z,40.19
2019-04-22T01:15:07.290Z,40.15
2019-04-22T01:15:47.490Z,40.03
2019-04-22T01:16:22.961Z,40.00
2019-04-22T01:17:00.025Z,39.89
2019-04-22T01:17:43.502Z,39.96
2019-04-22T01:18:15.654Z,40.05
2019-04-22T01:18:53.833Z,40.01
2019-04-22T01:19:39.253Z,39.99
2019-04-22T01:20:24.492Z,40.04
2019-04-22T01:21:05.853Z,40.08
2019-04-22T01:21:30.560Z,40.03
2019-04-22T01:21:58.205Z,40.08
2019-04-22T01:22:38.161Z,40.10
2019-04-22T01:23:20.595Z,40.06
2019-04-22T01:23:52.274Z,39.99
2019-04-22T01:24:37.029Z,39.99
2019-04-22T01:25:12.939Z,40.03
2019-04-22T01:25:46.321Z,40.12
2019-04-22T01:26:25.476Z,40.27
2019-04-22T01:27:03.674Z,40.13
2019-04-22T01:27:39.222Z,40.14
2019-04-22T01:28:14.117Z,40.22
2019-04-22T01:28:52.520Z,40.30
2019-04-22T01:29:30.871Z,40.31
2019-04-22T01:30:08.462Z,40.25
2019-04-22T01:30:40.624Z,40.39
2019-04-22T01:31:17.179Z,40.30
2019-04-22T01:31:49.237Z,40.23
2019-04-22T01:32:34.430Z,40.25
2019-04-22T01:33:12.778Z,40.23
2019-04-22T01:33:49.763Z,40.30
2019-04-22T01:34:33.624Z,40.24
2019-04-22T01:35:08.525Z,40.32
2019-04-22T01:35:56.915Z,40.33
2019-04-22T01:36:30.145Z,40.35
2019-04-22T01:37:07.657Z,40.37
2019-04-22T01:37:45.895Z,40.40
2019-04-22T01:38:26.268Z,40.40
2019-04-22T01:39:02.305Z,40.39
2019-04-22T01:39:50.051Z,40.40
2019-04-22T01:40:28.142Z,40.35
2019-04-22T01:41:07.071Z,40.44
2019-04-22T01:41:48.814Z,40.53
2019-04-22T01:42:35.821Z,40.43
2019-04-22T01:43:40.989Z,40.48
2019-04-22T01:44:31.362Z,40.46
2019-04-22T01:44:45.352Z,40.38
2019-04-22T01:45:25.906Z,40.40
2019-04-22T01:46:02.511Z,40.44
2019-04-22T01:46:45.070Z,40.52
2019-04-22T01:47:22.960Z,40.57
2019-04-22T01:48:00.839Z,40.59
2019-04-22T01:48:39.554Z,40.76
2019-04-22T01:49:19.227Z,40.78
2019-04-22T01:49:46.078Z,40.68
2019-04-22T01:50:28.670Z,40.77
2019-04-22T01:51:00.717Z,40.83
2019-04-22T01:51:51.854Z,40.88
2019-04-22T01:53:06.490Z,40.87
2019-04-22T01:53:33.444Z,40.84
2019-04-22T01:54:22.238Z,40.87
2019-04-22T01:55:10.483Z,40.88
2019-04-22T01:55:32.400Z,40.81
2019-04-22T01:56:06.015Z,40.85
2019-04-22T01:56:48.401Z,40.89
2019-04-22T01:57:23.971Z,40.86
2019-04-22T01:57:59.888Z,40.85
2019-04-22T01:58:36.148Z,40.89
2019-04-22T01:59:11.028Z,40.90
2019-04-22T01:59:48.762Z,40.86
2019-04-22T02:00:35.687Z,40.90
2019-04-22T02:01:13.545Z,40.90
2019-04-22T02:01:50.004Z,40.97
2019-04-22T02:02:31.060Z,41.05
2019-04-22T02:03:04.493Z,41.05
2019-04-22T02:03:46.701Z,40.95
2019-04-22T02:04:26.943Z,40.88
2019-04-22T02:04:59.429Z,40.93
2019-04-22T02:05:50.542Z,40.92
2019-04-22T02:06:17.124Z,41.10
2019-04-22T02:06:48.483Z,41.14
2019-04-22T02:07:32.104Z,41.12
2019-04-22T02:08:09.657Z,41.17
2019-04-22T02:08:53.234Z,41.15
2019-04-22T02:09:24.167Z,41.19
2019-04-22T02:09:56.108Z,41.24
2019-04-22T02:10:39.257Z,41.19
2019-04-22T02:11:14.633Z,41.19
2019-04-22T02:11:53.397Z,41.24
2019-04-22T02:12:33.731Z,41.12
2019-04-22T02:13:10.085Z,41.08
2019-04-22T02:13:52.709Z,41.10
2019-04-22T02:14:27.206Z,41.10
2019-04-22T02:14:57.266Z,41.22
2019-04-22T02:15:41.886Z,41.32
2019-04-22T02:16:17.942Z,41.16
2019-04-22T02:16:55.774Z,41.24
2019-04-22T02:18:18.295Z,41.27
2019-04-22T02:18:53.116Z,41.25
2019-04-22T02:19:30.689Z,41.23
2019-04-22T02:20:05.357Z,41.12
2019-04-22T02:20:44.300Z,41.05
2019-04-22T02:21:17.022Z,41.16
2019-04-22T02:21:56.547Z,41.09
2019-04-22T02:22:50.862Z,41.02
2019-04-22T02:24:20.024Z,40.88
2019-04-22T02:24:46.828Z,40.91
2019-04-22T02:25:21.193Z,40.91
2019-04-22T02:26:41.722Z,40.98
2019-04-22T02:27:28.691Z,40.98
2019-04-22T02:27:54.712Z,40.79
2019-04-22T02:29:17.070Z,40.69
2019-04-22T02:29:52.311Z,40.64
2019-04-22T02:30:42.070Z,40.63
2019-04-22T02:31:51.074Z,40.63
2019-04-22T02:32:52.022Z,40.71
2019-04-22T02:33:25.166Z,40.59
2019-04-22T02:34:00.793Z,40.46
2019-04-22T02:34:21.771Z,40.35
2019-04-22T02:35:55.110Z,40.37
2019-04-22T02:36:51.374Z,40.39
2019-04-22T02:38:31.406Z,40.35
2019-04-22T02:39:20.217Z,40.55
2019-04-22T02:40:03.823Z,40.47
2019-04-22T02:40:56.290Z,40.24
2019-04-22T02:41:51.029Z,40.07
2019-04-22T02:42:23.480Z,40.05
2019-04-22T02:43:11.898Z,40.25
2019-04-22T02:44:31.375Z,40.08
2019-04-22T02:45:52.590Z,40.25
2019-04-22T02:47:27.049Z,40.14
2019-04-22T02:48:26.635Z,40.34
2019-04-22T02:49:24.494Z,40.21
2019-04-22T02:50:43.907Z,40.35
2019-04-22T02:51:22.363Z,40.26
2019-04-22T02:51:52.485Z,40.25
2019-04-22T02:52:41.077Z,40.26
2019-04-22T02:53:17.550Z,40.28
2019-04-22T02:56:27.168Z,40.31
2019-04-22T02:56:53.037Z,40.21
2019-04-22T02:58:12.602Z,40.26
2019-04-22T03:00:44.363Z,40.41
2019-04-22T03:01:39.506Z,40.50
2019-04-22T03:02:58.906Z,40.78
2019-04-22T03:03:33.181Z,40.60
2019-04-22T03:05:08.852Z,40.81
2019-04-22T03:05:59.246Z,40.66
2019-04-22T03:06:49.548Z,40.86
2019-04-22T03:07:48.989Z,41.08
2019-04-22T03:09:18.588Z,40.89
2019-04-22T03:10:23.908Z,40.96
2019-04-22T03:10:56.554Z,40.70
2019-04-22T03:11:25.305Z,40.76
2019-04-22T03:12:11.913Z,40.56
2019-04-22T03:12:33.280Z,40.62
2019-04-22T03:13:29.268Z,40.72
2019-04-22T03:14:01.442Z,40.59
2019-04-22T03:14:34.070Z,40.51
2019-04-22T03:15:07.937Z,40.64
2019-04-22T03:16:01.337Z,40.51
2019-04-22T03:17:11.005Z,40.79
2019-04-22T03:17:43.767Z,40.88
2019-04-22T03:18:35.992Z,40.71
2019-04-22T03:19:02.865Z,40.69
2019-04-22T03:20:08.491Z,40.58
2019-04-22T03:20:58.143Z,40.74
2019-04-22T03:21:28.026Z,40.78
2019-04-22T03:22:12.475Z,40.49
2019-04-22T03:22:47.603Z,40.46
2019-04-22T03:26:35.066Z,41.05
2019-04-22T03:27:07.531Z,40.66
2019-04-22T03:27:40.200Z,40.49
2019-04-22T03:28:33.028Z,40.16
2019-04-22T03:29:11.168Z,40.12
2019-04-22T03:30:39.446Z,40.25
2019-04-22T03:31:58.978Z,40.59
2019-04-22T03:32:35.995Z,40.52
2019-04-22T03:32:52.501Z,40.08
2019-04-22T03:33:36.205Z,40.05
2019-04-22T03:37:04.401Z,39.87
2019-04-22T03:38:31.211Z,39.84
2019-04-22T03:39:20.326Z,39.82
2019-04-22T03:40:28.184Z,39.83
2019-04-22T03:41:14.344Z,39.71
2019-04-22T03:42:05.721Z,39.57
2019-04-22T03:42:07.767Z,39.57
2019-04-22T03:43:24.007Z,39.57
2019-04-22T03:44:38.404Z,39.57
2019-04-22T03:45:28.423Z,39.47
2019-04-22T03:46:03.894Z,39.34
2019-04-22T03:46:41.833Z,39.54
2019-04-22T03:47:53.732Z,39.50
2019-04-22T03:48:27.072Z,39.22
2019-04-22T03:49:32.864Z,39.04
2019-04-22T03:49:52.110Z,39.17
2019-04-22T03:51:01.956Z,39.24
2019-04-22T03:53:05.724Z,39.35
2019-04-22T03:53:33.566Z,39.30
2019-04-22T03:54:21.297Z,39.10
2019-04-22T03:54:52.112Z,39.02
2019-04-22T03:55:23.149Z,39.01
2019-04-22T03:56:02.397Z,38.94
2019-04-22T03:58:37.310Z,38.90
2019-04-22T04:00:08.459Z,39.38
2019-04-22T04:01:30.484Z,39.45
2019-04-22T04:04:50.277Z,39.28
2019-04-22T04:05:41.630Z,39.33
2019-04-22T04:06:02.285Z,39.57
2019-04-22T04:07:01.767Z,39.28
2019-04-22T04:07:32.443Z,39.07
2019-04-22T04:08:12.646Z,38.91
2019-04-22T04:08:38.930Z,38.88
2019-04-22T04:10:02.233Z,38.65
2019-04-22T04:11:18.920Z,38.71
2019-04-22T04:12:07.899Z,38.87
2019-04-22T04:13:19.681Z,39.22
2019-04-22T04:13:52.126Z,39.20
2019-04-22T04:15:10.851Z,39.34
2019-04-22T04:16:21.705Z,38.72
2019-04-22T04:17:09.397Z,39.28
2019-04-22T04:17:36.911Z,38.99
2019-04-22T04:18:29.546Z,38.88
2019-04-22T04:18:57.840Z,39.37
2019-04-22T04:19:34.451Z,38.89
2019-04-22T04:20:10.767Z,39.07
2019-04-22T04:20:44.742Z,38.80
2019-04-22T04:21:57.657Z,38.62
2019-04-22T04:24:24.196Z,38.67
2019-04-22T04:25:48.183Z,38.37
2019-04-22T04:26:41.063Z,38.26
2019-04-22T04:27:25.224Z,38.31
2019-04-22T04:28:03.571Z,38.23
2019-04-22T04:29:07.503Z,38.19
2019-04-22T04:29:51.380Z,38.04
2019-04-22T04:30:25.221Z,38.03
2019-04-22T04:31:33.616Z,39.50
2019-04-22T04:32:25.201Z,39.17
2019-04-22T04:33:24.949Z,39.08
2019-04-22T04:33:54.239Z,39.29
2019-04-22T04:34:56.368Z,38.38
2019-04-22T04:36:28.656Z,38.39
2019-04-22T04:37:25.532Z,37.71
2019-04-22T04:38:33.381Z,37.42
2019-04-22T04:39:00.577Z,37.26
2019-04-22T04:39:43.736Z,37.10
2019-04-22T04:40:55.595Z,37.04
2019-04-22T04:41:34.365Z,36.88
2019-04-22T04:42:18.768Z,36.93
2019-04-22T04:42:46.217Z,36.62
2019-04-22T04:43:32.832Z,36.53
2019-04-22T04:44:11.198Z,36.23
2019-04-22T04:45:41.211Z,36.33
2019-04-22T04:46:02.841Z,36.41
2019-04-22T04:46:47.486Z,36.07
2019-04-22T04:47:13.039Z,35.84
2019-04-22T04:48:32.703Z,36.07
2019-04-22T04:49:14.035Z,35.92
2019-04-22T04:49:45.649Z,36.04
2019-04-22T04:50:18.296Z,35.90
2019-04-22T04:51:07.221Z,35.81
2019-04-22T04:52:31.070Z,36.04
2019-04-22T04:54:15.167Z,35.88
2019-04-22T04:54:48.429Z,35.90
2019-04-22T04:55:24.424Z,36.29
2019-04-22T04:56:08.351Z,36.31
2019-04-22T04:56:42.463Z,35.91
2019-04-22T04:57:16.440Z,35.59
2019-04-22T04:58:22.080Z,35.32
2019-04-22T04:58:47.777Z,35.20
2019-04-22T05:00:11.434Z,35.33
2019-04-22T05:01:08.014Z,35.39
2019-04-22T05:01:44.576Z,35.27
2019-04-22T05:05:06.360Z,34.93
2019-04-22T05:05:28.833Z,34.88
2019-04-22T05:06:09.480Z,35.02
2019-04-22T05:06:51.758Z,34.87
2019-04-22T05:07:24.397Z,35.04
2019-04-22T05:08:19.335Z,34.99
2019-04-22T05:09:54.256Z,35.25
2019-04-22T05:10:41.137Z,35.18
2019-04-22T05:11:10.976Z,35.14
2019-04-22T05:11:52.111Z,35.32
2019-04-22T05:14:55.109Z,36.21
2019-04-22T05:15:29.747Z,36.20
2019-04-22T05:16:49.443Z,36.17
2019-04-22T05:17:32.216Z,36.25
2019-04-22T05:18:12.643Z,35.93
2019-04-22T05:18:44.824Z,35.83
2019-04-22T05:19:20.926Z,35.49
2019-04-22T05:19:56.710Z,34.74
2019-04-22T05:20:42.954Z,34.59
2019-04-22T05:21:13.644Z,34.78
2019-04-22T05:21:53.368Z,34.95
2019-04-22T05:22:28.554Z,34.50
2019-04-22T05:22:59.463Z,34.34
2019-04-22T05:23:45.045Z,34.04
2019-04-22T05:24:25.701Z,33.77
2019-04-22T05:24:59.762Z,33.77
2019-04-22T05:25:36.837Z,34.00
2019-04-22T05:26:11.038Z,34.22
2019-04-22T05:26:57.130Z,34.43
2019-04-22T05:28:08.742Z,33.87
2019-04-22T05:28:45.000Z,34.01
2019-04-22T05:29:23.472Z,33.85
2019-04-22T05:30:32.392Z,33.20
2019-04-22T05:31:15.785Z,32.74
2019-04-22T05:31:55.332Z,33.22
2019-04-22T05:32:30.692Z,33.78
2019-04-22T05:33:01.873Z,33.65
2019-04-22T05:33:40.964Z,32.83
2019-04-22T05:34:26.417Z,32.77
2019-04-22T05:35:01.875Z,32.82
2019-04-22T05:35:49.003Z,32.54
2019-04-22T05:36:12.721Z,32.31
2019-04-22T05:36:53.960Z,32.56
2019-04-22T05:37:33.818Z,33.20
2019-04-22T05:38:13.353Z,32.90
2019-04-22T05:38:53.646Z,33.27
2019-04-22T05:39:22.210Z,33.65
2019-04-22T05:40:10.322Z,33.15
2019-04-22T05:41:46.335Z,31.59
2019-04-22T05:42:21.763Z,31.74
2019-04-22T05:42:56.455Z,30.67
2019-04-22T05:43:34.265Z,30.93
2019-04-22T05:44:50.010Z,31.02
2019-04-22T05:45:41.291Z,30.98
2019-04-22T05:46:04.173Z,31.01
2019-04-22T05:46:45.975Z,31.09
2019-04-22T05:47:23.751Z,31.07
2019-04-22T05:47:56.244Z,30.79
2019-04-22T05:48:39.736Z,30.03
2019-04-22T05:49:29.954Z,30.25
2019-04-22T05:49:48.591Z,29.91
2019-04-22T05:50:26.943Z,29.78
2019-04-22T05:51:10.098Z,30.12
2019-04-22T05:51:49.406Z,30.66
2019-04-22T05:52:21.295Z,30.32
2019-04-22T05:53:40.514Z,30.06
2019-04-22T05:54:55.035Z,30.44
2019-04-22T05:55:36.338Z,30.43
2019-04-22T05:56:22.399Z,30.30
2019-04-22T05:57:03.880Z,30.25
2019-04-22T05:57:23.974Z,29.44
2019-04-22T05:58:06.023Z,28.83
2019-04-22T05:58:45.274Z,29.03
2019-04-22T05:59:19.036Z,28.67
2019-04-22T05:59:59.520Z,28.50
2019-04-22T06:02:43.529Z,28.33
2019-04-22T06:03:04.215Z,28.47
2019-04-22T06:03:47.888Z,28.17
2019-04-22T06:04:39.940Z,27.61
2019-04-22T06:05:01.807Z,27.69
2019-04-22T06:05:35.752Z,27.81
2019-04-22T06:06:15.170Z,27.34
2019-04-22T06:06:46.762Z,27.11
2019-04-22T06:07:29.343Z,26.65
2019-04-22T06:08:04.193Z,26.73
2019-04-22T06:08:45.576Z,26.37
2019-04-22T06:09:24.547Z,26.54
2019-04-22T06:10:06.703Z,26.54
2019-04-22T06:10:52.065Z,26.13
2019-04-22T06:11:22.943Z,25.68
2019-04-22T06:11:44.588Z,25.84
2019-04-22T06:12:26.366Z,25.82
2019-04-22T06:13:06.603Z,25.79
2019-04-22T06:13:38.478Z,25.74
2019-04-22T06:14:20.387Z,25.85
2019-04-22T06:15:05.039Z,25.95
2019-04-22T06:15:53.110Z,26.11
2019-04-22T06:16:18.229Z,25.67
2019-04-22T06:16:59.172Z,26.13
2019-04-22T06:17:37.952Z,26.19
2019-04-22T06:18:47.280Z,25.42
2019-04-22T06:19:27.343Z,25.19
2019-04-22T06:20:03.031Z,25.05
2019-04-22T06:20:50.056Z,25.01
2019-04-22T06:21:38.792Z,25.04
2019-04-22T06:21:57.876Z,24.65
2019-04-22T06:22:48.670Z,24.64
2019-04-22T06:23:19.026Z,24.73
2019-04-22T06:23:54.292Z,24.78
2019-04-22T06:24:27.905Z,24.60
2019-04-22T06:25:17.061Z,24.21
2019-04-22T06:25:58.947Z,24.04
2019-04-22T06:26:35.890Z,24.03
2019-04-22T06:27:10.251Z,23.58
2019-04-22T06:27:42.892Z,23.10
2019-04-22T06:28:22.010Z,22.78
2019-04-22T06:28:54.816Z,22.82
2019-04-22T06:29:41.247Z,22.74
2019-04-22T06:30:12.619Z,22.54
2019-04-22T06:30:50.348Z,22.33
2019-04-22T06:31:29.642Z,22.38
2019-04-22T06:32:22.997Z,22.18
2019-04-22T06:33:20.780Z,22.08
2019-04-22T06:34:06.022Z,21.72
2019-04-22T06:34:38.554Z,21.67
2019-04-22T06:35:16.601Z,21.08
2019-04-22T06:35:54.573Z,20.98
2019-04-22T06:36:30.853Z,20.79
2019-04-22T06:37:07.623Z,20.51
2019-04-22T06:37:43.290Z,20.40
2019-04-22T06:38:56.651Z,19.55
2019-04-22T06:39:34.459Z,19.55
2019-04-22T06:40:16.424Z,19.32
2019-04-22T06:40:58.424Z,19.03
2019-04-22T06:41:31.692Z,18.89
2019-04-22T06:42:11.512Z,18.36
2019-04-22T06:42:42.490Z,18.17
2019-04-22T06:43:21.717Z,17.76
2019-04-22T06:44:07.665Z,17.45
2019-04-22T06:44:36.570Z,17.23
2019-04-22T06:45:18.993Z,16.99
2019-04-22T06:45:45.044Z,16.71
2019-04-22T06:47:39.834Z,16.76
2019-04-22T06:48:04.477Z,16.76
2019-04-22T06:48:28.459Z,16.54
2019-04-22T06:49:03.026Z,16.36
2019-04-22T06:49:42.381Z,16.20
2019-04-22T06:50:32.779Z,16.12
2019-04-22T06:50:56.810Z,16.13
2019-04-22T06:51:40.234Z,15.62
2019-04-22T06:52:17.997Z,15.69
2019-04-22T06:52:51.974Z,15.78
2019-04-22T06:53:33.157Z,15.72
2019-04-22T06:54:12.393Z,15.70
2019-04-22T06:54:49.023Z,15.71
2019-04-22T06:55:22.396Z,15.64
2019-04-22T06:56:00.456Z,15.45
2019-04-22T06:56:35.249Z,15.27
2019-04-22T06:57:11.565Z,15.18
2019-04-22T06:57:51.177Z,15.12
2019-04-22T06:58:28.333Z,15.23
2019-04-22T06:59:14.755Z,15.32
2019-04-22T06:59:52.068Z,15.10
2019-04-22T07:00:43.424Z,14.95
2019-04-22T07:01:15.767Z,14.98
2019-04-22T07:01:42.725Z,14.75
2019-04-22T07:02:23.841Z,14.88
2019-04-22T07:03:26.929Z,14.85
2019-04-22T07:03:42.755Z,14.73
2019-04-22T07:04:14.459Z,14.31
2019-04-22T07:04:56.814Z,14.29
2019-04-22T07:05:32.776Z,13.99
2019-04-22T07:06:15.131Z,14.15
2019-04-22T07:06:47.888Z,14.22
2019-04-22T07:07:40.266Z,14.47
2019-04-22T07:08:05.541Z,14.65
2019-04-22T07:09:31.538Z,14.22
2019-04-22T07:09:56.979Z,14.06
2019-04-22T07:10:45.330Z,13.95
2019-04-22T07:11:07.923Z,13.73
2019-04-22T07:11:48.302Z,13.49
2019-04-22T07:12:31.989Z,13.54
2019-04-22T07:13:13.294Z,13.83
2019-04-22T07:13:51.737Z,13.29
2019-04-22T07:14:18.439Z,13.08
2019-04-22T07:15:02.967Z,13.28
2019-04-22T07:15:46.371Z,13.16
2019-04-22T07:16:20.810Z,13.02
2019-04-22T07:16:54.288Z,13.11
2019-04-22T07:17:39.315Z,13.38
2019-04-22T07:18:14.746Z,13.47
2019-04-22T07:19:05.952Z,13.61
2019-04-22T07:19:40.866Z,13.54
2019-04-22T07:19:58.393Z,13.59
2019-04-22T07:21:14.385Z,13.31
2019-04-22T07:21:57.552Z,13.01
2019-04-22T07:22:45.381Z,13.09
2019-04-22T07:23:15.505Z,12.94
2019-04-22T07:23:51.397Z,13.25
2019-04-22T07:24:43.829Z,12.99
2019-04-22T07:25:06.679Z,13.16
2019-04-22T07:25:41.157Z,13.08
2019-04-22T07:26:13.978Z,13.19
2019-04-22T07:27:00.592Z,13.26
2019-04-22T07:27:34.219Z,13.12
2019-04-22T07:28:11.122Z,13.24
2019-04-22T07:28:49.045Z,13.14
2019-04-22T07:29:26.621Z,12.94
2019-04-22T07:30:09.229Z,12.65
2019-04-22T07:31:01.874Z,12.64
2019-04-22T07:31:20.597Z,12.69
2019-04-22T07:32:02.338Z,12.81
2019-04-22T07:32:59.099Z,12.83
2019-04-22T07:33:36.224Z,12.69
2019-04-22T07:33:58.395Z,12.85
2019-04-22T07:34:47.336Z,12.66
2019-04-22T07:35:08.353Z,12.44
2019-04-22T07:35:57.487Z,12.44
2019-04-22T07:37:13.066Z,12.63
2019-04-22T07:37:41.583Z,12.59
2019-04-22T07:38:25.537Z,12.29
2019-04-22T07:38:50.778Z,12.50
2019-04-22T07:39:37.970Z,12.68
2019-04-22T07:40:13.790Z,12.93
2019-04-22T07:41:28.687Z,13.17
2019-04-22T07:42:10.671Z,12.93
2019-04-22T07:42:45.184Z,13.11
2019-04-22T07:43:32.580Z,14.06
2019-04-22T07:44:45.199Z,14.71
2019-04-22T07:45:25.459Z,12.96
2019-04-22T07:45:49.360Z,12.96
2019-04-22T07:46:54.694Z,12.34
2019-04-22T07:47:13.892Z,13.28
2019-04-22T07:47:44.610Z,14.46
2019-04-22T07:48:58.048Z,15.09
2019-04-22T07:49:39.003Z,14.87
2019-04-22T07:50:32.692Z,14.87
2019-04-22T07:51:33.352Z,16.61
2019-04-22T07:52:09.965Z,16.49
2019-04-22T07:52:45.615Z,15.81
2019-04-22T07:53:21.675Z,15.21
2019-04-22T07:54:01.872Z,15.07
2019-04-22T07:54:43.401Z,14.92
2019-04-22T07:55:13.397Z,15.05
2019-04-22T07:55:52.228Z,14.93
2019-04-22T07:56:29.470Z,15.09
2019-04-22T07:57:16.486Z,15.06
2019-04-22T07:57:45.765Z,15.14
2019-04-22T07:58:24.186Z,15.08
2019-04-22T07:59:05.695Z,15.36
2019-04-22T07:59:40.559Z,15.41
2019-04-22T08:00:57.641Z,14.62
2019-04-22T08:01:30.487Z,14.85
2019-04-22T08:02:11.512Z,14.75
2019-04-22T08:02:51.664Z,14.54
2019-04-22T08:03:38.091Z,14.81
2019-04-22T08:04:54.293Z,14.12
2019-04-22T08:05:18.818Z,13.87
2019-04-22T08:06:05.386Z,13.89
2019-04-22T08:06:38.264Z,13.97
2019-04-22T08:07:14.539Z,14.28
2019-04-22T08:07:52.059Z,14.48
2019-04-22T08:09:10.685Z,14.55
2019-04-22T08:09:58.058Z,14.61
2019-04-22T08:11:30.192Z,14.43
2019-04-22T08:12:11.707Z,14.55
2019-04-22T08:12:51.821Z,15.21
2019-04-22T08:13:32.628Z,15.44
2019-04-22T08:14:07.500Z,15.97
2019-04-22T08:14:50.484Z,16.83
2019-04-22T08:15:19.953Z,16.78
2019-04-22T08:16:36.862Z,15.44
2019-04-22T08:17:43.466Z,14.85
2019-04-22T08:18:34.126Z,14.71
2019-04-22T08:19:16.975Z,14.56
2019-04-22T08:19:50.130Z,14.89
2019-04-22T08:21:39.255Z,14.64
2019-04-22T08:22:15.692Z,14.52
2019-04-22T08:23:00.661Z,14.69
2019-04-22T08:23:35.467Z,14.57
2019-04-22T08:24:14.618Z,14.24
2019-04-22T08:24:47.209Z,14.48
2019-04-22T08:25:26.823Z,14.55
2019-04-22T08:26:00.952Z,14.99
2019-04-22T08:26:46.810Z,15.63
2019-04-22T08:27:25.241Z,15.60
2019-04-22T08:28:05.709Z,15.50
2019-04-22T08:28:41.097Z,15.35
2019-04-22T08:29:21.648Z,15.18
2019-04-22T08:29:58.625Z,15.24
2019-04-22T08:30:33.861Z,15.30
2019-04-22T08:31:14.588Z,15.07
2019-04-22T08:31:57.516Z,14.87
2019-04-22T08:32:28.249Z,15.06
2019-04-22T08:33:09.656Z,15.54
2019-04-22T08:33:39.936Z,15.50
2019-04-22T08:34:20.860Z,15.36
2019-04-22T08:34:56.470Z,15.33
2019-04-22T08:35:52.426Z,15.22
2019-04-22T08:37:12.256Z,14.75
2019-04-22T08:38:09.955Z,15.03
2019-04-22T08:39:04.174Z,15.26
2019-04-22T08:39:25.234Z,14.77
2019-04-22T08:40:07.654Z,15.12
2019-04-22T08:40:43.214Z,15.91
2019-04-22T08:41:28.956Z,16.13
2019-04-22T08:41:52.039Z,16.11
2019-04-22T08:42:43.459Z,15.62
2019-04-22T08:43:57.477Z,15.28
2019-04-22T08:44:41.957Z,15.96
2019-04-22T08:45:09.260Z,15.84
2019-04-22T08:45:46.144Z,15.80
2019-04-22T08:47:04.627Z,14.83
2019-04-22T08:47:39.848Z,14.79
2019-04-22T08:48:16.434Z,14.60
2019-04-22T08:48:55.858Z,14.72
2019-04-22T08:49:39.126Z,14.71
2019-04-22T08:50:07.797Z,14.73
2019-04-22T08:50:44.624Z,14.60
2019-04-22T08:52:03.902Z,14.62
2019-04-22T08:52:42.203Z,14.45
2019-04-22T08:53:28.154Z,14.45
2019-04-22T08:55:14.272Z,14.16
2019-04-22T08:55:56.717Z,14.16
2019-04-22T08:57:06.775Z,14.22
2019-04-22T08:58:06.333Z,14.09
2019-04-22T08:58:34.285Z,14.01
2019-04-22T08:59:06.556Z,13.61
2019-04-22T08:59:28.318Z,13.85
2019-04-22T09:00:12.933Z,13.75
2019-04-22T09:01:02.281Z,14.17
2019-04-22T09:01:29.966Z,14.29
2019-04-22T09:02:06.278Z,14.08
2019-04-22T09:02:49.814Z,14.62
2019-04-22T09:03:20.740Z,14.36
2019-04-22T09:03:58.132Z,14.34
2019-04-22T09:04:34.687Z,13.95
2019-04-22T09:05:31.689Z,13.85
2019-04-22T09:06:47.942Z,13.63
2019-04-22T09:07:46.531Z,13.58
2019-04-22T09:08:29.598Z,13.82
2019-04-22T09:09:03.374Z,14.17
2019-04-22T09:09:42.914Z,14.18
2019-04-22T09:10:17.189Z,14.03
2019-04-22T09:10:57.121Z,14.03
2019-04-22T09:11:38.431Z,13.78
2019-04-22T09:12:07.647Z,13.49
2019-04-22T09:13:03.538Z,13.33
2019-04-22T09:13:26.293Z,13.50
2019-04-22T09:14:01.652Z,13.32
2019-04-22T09:14:43.471Z,13.53
2019-04-22T09:15:23.110Z,13.49
2019-04-22T09:15:58.857Z,13.34
2019-04-22T09:17:13.697Z,13.34
2019-04-22T09:18:32.960Z,12.94
2019-04-22T09:19:10.823Z,13.10
2019-04-22T09:19:44.096Z,13.20
2019-04-22T09:20:20.412Z,13.25
2019-04-22T09:21:08.499Z,13.48
2019-04-22T09:21:38.999Z,13.46
2019-04-22T09:22:17.553Z,13.29
2019-04-22T09:22:56.902Z,13.37
2019-04-22T09:23:37.134Z,13.10
2019-04-22T09:24:10.538Z,12.65
2019-04-22T09:24:46.854Z,12.80
2019-04-22T09:25:27.438Z,12.44
2019-04-22T09:26:05.056Z,12.29
2019-04-22T09:26:44.975Z,12.64
2019-04-22T09:27:24.826Z,12.92
2019-04-22T09:27:55.998Z,13.07
2019-04-22T09:28:38.073Z,13.04
2019-04-22T09:29:53.639Z,13.53
2019-04-22T09:30:37.369Z,13.58
2019-04-22T09:31:06.489Z,13.61
2019-04-22T09:31:49.769Z,13.33
2019-04-22T09:32:19.137Z,13.26
2019-04-22T09:33:06.409Z,13.08
2019-04-22T09:34:13.782Z,12.80
2019-04-22T09:34:53.247Z,12.56
2019-04-22T09:35:32.650Z,12.70
2019-04-22T09:37:07.987Z,12.87
2019-04-22T09:37:28.642Z,12.92
2019-04-22T09:38:14.863Z,13.17
2019-04-22T09:38:43.654Z,13.20
2019-04-22T09:39:17.074Z,13.22
2019-04-22T09:40:02.774Z,13.31
2019-04-22T09:40:48.352Z,13.21
2019-04-22T09:41:13.982Z,13.28
2019-04-22T09:42:30.049Z,12.96
2019-04-22T09:43:05.025Z,13.16
2019-04-22T09:43:47.119Z,13.41
2019-04-22T09:44:29.817Z,13.82
2019-04-22T09:44:59.241Z,13.75
2019-04-22T09:45:35.565Z,13.66
2019-04-22T09:46:14.766Z,13.21